Latest Weather Observations for Scottsdale

IDT60801

Issued at 10:11 am EDT Thursday 21 October 2021 (issued every 10 minutes, with the page automatically refreshed every 10 minutes)

About weather observations | Map of weather stations | Latest weather observations for TAS | Other Formats
Station Details ID: 091219 Name: SCOTTSDALE (WEST MINSTONE ROAD) Lat: -41.17 Lon: 147.49 Height: 197.5 m
Data from the previous 72 hours. | See also: Recent months at Scottsdale
Date/Time
EDT
Temp
°C
App
Temp
°C
Dew
Point
°C
Rel
Hum
%
Delta-T
°C
Wind Press
QNH
hPa
Press
MSL
hPa
Rain since
9am
mm
Dir  Spd
km/h
Gust
km/h
Spd
kts
Gust
kts
21/10:00am 14.6 11.4 11.9 84 1.5 ENE 20 32 11 17 1019.9 1020.0 0.0
21/09:30am 14.3 11.7 12.0 86 1.3 NE 17 24 9 13 1020.1 1020.2 0.0
21/09:00am 13.8 10.7 11.7 87 1.1 ENE 19 26 10 14 1020.0 1020.1 0.0
21/08:30am 13.3 9.9 11.4 88 1.0 ENE 20 26 11 14 1019.9 1020.0 0.0
21/08:00am 13.3 10.5 11.4 88 1.0 ENE 17 24 9 13 1019.9 1020.0 0.0
21/07:30am 12.2 9.1 10.4 89 0.9 E 17 20 9 11 1019.7 1019.8 0.0
21/07:00am 11.7 8.2 10.1 90 0.8 E 19 24 10 13 1019.6 1019.7 0.0
21/06:30am 11.1 8.2 9.7 91 0.7 ESE 15 19 8 10 1019.7 1019.8 0.0
21/06:00am 11.2 8.7 9.6 90 0.8 ESE 13 17 7 9 1019.6 1019.7 0.0
21/05:30am 11.6 8.5 10.2 91 0.7 E 17 22 9 12 1019.6 1019.7 0.0
21/05:00am 11.5 7.9 9.9 90 0.8 E 19 24 10 13 1019.8 1019.9 0.0
21/04:30am 11.3 8.0 9.6 89 0.9 E 17 24 9 13 1020.2 1020.3 0.0
21/04:00am 11.3 7.6 9.4 88 1.0 E 19 28 10 15 1020.3 1020.4 0.0
21/03:30am 11.1 8.0 8.7 85 1.2 E 15 22 8 12 1020.5 1020.6 0.0
21/03:00am 10.9 6.8 8.0 82 1.4 E 19 24 10 13 1020.7 1020.8 0.0
21/02:30am 10.3 6.1 7.5 83 1.4 ESE 19 24 10 13 1021.1 1021.2 0.0
21/02:00am 10.3 6.5 7.5 83 1.3 E 17 26 9 14 1021.5 1021.7 0.0
21/01:30am 10.4 6.6 7.5 82 1.4 E 17 24 9 13 1021.9 1022.1 0.0
21/01:00am 9.9 6.5 7.5 85 1.2 ESE 15 22 8 12 1022.3 1022.5 0.0
21/12:30am 10.0 5.8 7.6 85 1.2 E 19 26 10 14 1022.4 1022.6 0.0
21/12:00am 10.2 6.1 7.8 85 1.2 E 19 26 10 14 1022.6 1022.8 0.0
 
Date/Time
EDT
Temp
°C
App
Temp
°C
Dew
Point
°C
Rel
Hum
%
Delta-T
°C
Wind Press
QNH
hPa
Press
MSL
hPa
Rain since
9am
mm
Dir  Spd
km/h
Gust
km/h
Spd
kts
Gust
kts
20/11:30pm 10.5 6.5 8.3 86 1.1 E 19 33 10 18 1022.9 1023.1 0.0
20/11:00pm 10.3 6.1 8.2 87 1.0 E 20 30 11 16 1023.4 1023.5 0.0
20/10:30pm 10.8 6.3 8.4 85 1.2 E 22 37 12 20 1023.4 1023.5 0.0
20/10:00pm 10.2 5.5 7.8 85 1.2 E 22 30 12 16 1023.6 1023.7 0.0
20/09:30pm 10.4 6.5 7.1 80 1.6 E 17 22 9 12 1023.7 1023.8 0.0
20/09:00pm 9.8 5.2 6.5 80 1.5 E 20 24 11 13 1023.6 1023.7 0.0
20/08:30pm 9.9 5.4 6.3 78 1.7 ESE 19 26 10 14 1023.7 1023.8 0.0
20/08:00pm 9.5 5.7 6.0 79 1.6 E 15 19 8 10 1023.5 1023.6 0.0
20/07:30pm 10.3 6.2 6.3 76 1.9 E 17 22 9 12 1023.6 1023.7 0.0
20/07:00pm 11.4 6.4 6.5 72 2.3 ESE 22 28 12 15 1023.5 1023.6 0.0
20/06:30pm 11.9 7.2 6.2 68 2.7 E 20 28 11 15 1023.3 1023.4 0.0
20/06:00pm 12.4 7.7 6.2 66 2.9 ESE 20 28 11 15 1023.5 1023.6 0.0
20/05:30pm 13.2 8.4 7.4 68 2.9 ESE 22 30 12 16 1023.4 1023.5 0.0
20/05:00pm 13.6 9.2 7.2 65 3.1 ESE 20 28 11 15 1023.6 1023.7 0.0
20/04:30pm 13.1 7.8 6.9 66 3.0 ESE 24 33 13 18 1023.7 1023.8 0.0
20/04:00pm 13.0 8.3 5.9 62 3.4 ESE 20 30 11 16 1024.1 1024.2 0.0
20/03:30pm 13.2 8.8 7.2 67 2.9 ESE 20 26 11 14 1024.3 1024.4 0.0
20/03:00pm 13.1 8.2 6.7 65 3.1 ESE 22 30 12 16 1024.6 1024.7 0.0
20/02:30pm 13.5 8.7 7.3 66 3.1 ESE 22 30 12 16 1025.0 1025.1 0.0
20/02:00pm 13.6 8.7 6.7 63 3.3 ESE 22 32 12 17 1025.0 1025.1 0.0
20/01:30pm 13.4 9.2 5.8 60 3.6 ESE 17 28 9 15 1025.2 1025.3 0.0
20/01:00pm 14.6 10.6 8.1 65 3.3 E 19 32 10 17 1025.3 1025.4 0.0
20/12:30pm 15.3 10.5 7.3 59 4.0 E 22 30 12 16 1025.3 1025.4 0.0
20/12:00pm 13.5 8.5 6.6 63 3.3 E 22 30 12 16 1025.7 1025.8 0.0
20/11:30am 12.4 7.1 6.7 68 2.8 ENE 24 32 13 17 1026.1 1026.3 0.0
20/11:00am 13.1 7.6 7.5 69 2.7 ENE 26 32 14 17 1026.5 1026.7 0.0
20/10:30am 11.8 7.3 5.9 67 2.8 E 19 28 10 15 1026.7 1026.9 0.0
20/10:00am 12.6 8.1 6.2 65 3.0 E 19 26 10 14 1026.6 1026.8 0.0
20/09:30am 11.8 6.9 6.7 71 2.5 ESE 22 33 12 18 1026.5 1026.7 0.0
20/09:00am 11.3 6.4 6.8 74 2.1 ESE 22 30 12 16 1026.6 1026.8 0.2
20/08:30am 10.1 5.3 5.5 73 2.1 ESE 20 28 11 15 1026.9 1027.1 0.2
20/08:00am 9.2 3.9 4.8 74 2.0 ESE 22 30 12 16 1026.7 1026.9 0.2
20/07:30am 8.5 4.5 4.9 78 1.6 ESE 15 22 8 12 1027.0 1027.2 0.2
20/07:00am 6.1 1.8 3.1 81 1.3 SE 15 19 8 10 1027.0 1027.2 0.2
20/06:30am 4.2 0.0 1.6 83 1.0 SSE 13 15 7 8 1027.1 1027.3 0.2
20/06:00am 4.2 -0.4 1.4 82 1.1 SSE 15 19 8 10 1026.9 1027.1 0.2
20/05:30am 5.1 0.9 1.9 80 1.3 SE 13 17 7 9 1026.9 1027.1 0.2
20/05:00am 3.8 0.3 1.2 83 1.0 SE 9 13 5 7 1027.0 1027.2 0.2
20/04:30am 4.5 0.3 1.5 81 1.2 SSE 13 17 7 9 1027.0 1027.2 0.2
20/04:00am 4.4 0.5 1.3 80 1.2 SSE 11 13 6 7 1026.7 1026.9 0.2
20/03:30am 5.3 1.1 1.4 76 1.6 SSE 13 15 7 8 1026.7 1026.9 0.2
20/03:00am 4.5 0.4 2.0 84 1.0 SE 13 17 7 9 1026.5 1026.7 0.2
20/02:30am 4.6 0.5 2.0 83 1.0 SE 13 15 7 8 1027.0 1027.2 0.2
20/02:00am 4.3 -0.2 2.0 85 0.9 SSE 15 19 8 10 1026.9 1027.1 0.2
20/01:30am 4.6 0.5 2.3 85 0.9 SSE 13 17 7 9 1027.4 1027.6 0.2
20/01:00am 4.9 0.4 2.4 84 1.0 SSE 15 17 8 9 1028.2 1028.4 0.2
20/12:30am 4.8 1.5 2.3 84 1.0 SSE 9 13 5 7 1028.7 1028.8 0.2
20/12:00am 5.9 1.7 1.8 75 1.7 SE 13 19 7 10 1028.4 1028.5 0.2
 
Date/Time
EDT
Temp
°C
App
Temp
°C
Dew
Point
°C
Rel
Hum
%
Delta-T
°C
Wind Press
QNH
hPa
Press
MSL
hPa
Rain since
9am
mm
Dir  Spd
km/h
Gust
km/h
Spd
kts
Gust
kts
19/11:30pm 6.9 1.6 1.8 70 2.1 E 19 24 10 13 1027.9 1028.1 0.2
19/11:00pm 6.9 1.7 2.2 72 1.9 E 19 24 10 13 1027.7 1027.9 0.2
19/10:30pm 7.4 0.9 2.5 71 2.1 E 26 33 14 18 1027.6 1027.8 0.2
19/10:00pm 7.1 2.0 2.8 74 1.8 ESE 19 24 10 13 1027.6 1027.8 0.2
19/09:30pm 7.5 2.1 2.6 71 2.1 ESE 20 28 11 15 1027.5 1027.7 0.2
19/09:00pm 7.7 2.0 2.8 71 2.1 ESE 22 30 12 16 1027.0 1027.2 0.2
19/08:30pm 8.1 2.4 2.8 69 2.3 E 22 32 12 17 1026.8 1027.0 0.2
19/08:00pm 8.1 2.8 3.0 70 2.2 E 20 28 11 15 1026.5 1026.7 0.2
19/07:30pm 8.7 2.7 3.1 68 2.4 E 24 35 13 19 1026.1 1026.3 0.2
19/07:00pm 9.4 3.9 3.8 68 2.5 E 22 30 12 16 1026.1 1026.3 0.2
19/06:30pm 10.5 5.5 4.6 67 2.7 E 20 32 11 17 1026.0 1026.2 0.2
19/06:00pm 10.4 3.9 4.5 67 2.7 E 28 35 15 19 1025.7 1025.8 0.2
19/05:30pm 11.2 5.5 5.1 66 2.8 ESE 24 35 13 19 1025.1 1025.2 0.2
19/05:00pm 11.6 6.0 5.5 66 2.8 ESE 24 35 13 19 1024.7 1024.8 0.2
19/04:30pm 11.9 5.0 4.6 61 3.4 E 30 37 16 20 1024.5 1024.6 0.2
19/04:00pm 12.2 4.9 4.7 60 3.4 ESE 32 39 17 21 1024.3 1024.4 0.2
19/03:30pm 12.4 6.4 5.3 62 3.3 E 26 35 14 19 1024.2 1024.3 0.2
19/03:00pm 13.0 7.9 6.1 63 3.3 ESE 22 35 12 19 1024.1 1024.2 0.2
19/02:30pm 12.5 5.7 5.2 61 3.4 ESE 30 39 16 21 1024.3 1024.4 0.2
19/02:00pm 13.2 6.0 5.1 58 3.8 ESE 32 43 17 23 1024.3 1024.4 0.2
19/01:30pm 12.5 6.1 5.0 60 3.5 ESE 28 39 15 21 1024.1 1024.2 0.2
19/01:00pm 13.4 6.3 6.3 62 3.4 ESE 33 44 18 24 1024.0 1024.1 0.2
19/12:30pm 12.8 5.2 5.7 62 3.4 ESE 35 50 19 27 1023.8 1023.9 0.2
19/12:01pm 12.8 6.2 5.9 63 3.3 ESE 30 48 16 26 1023.9 1024.0 0.2
19/12:00pm 12.8 5.6 5.2 60 3.5 ESE 32 48 17 26 1023.9 1024.0 0.2
19/11:57am 13.1 6.5 6.0 62 3.4 E 30 48 16 26 1023.8 1023.9 0.2
19/11:30am 12.6 5.4 5.8 63 3.2 ESE 33 48 18 26 1023.8 1023.9 0.2
19/11:24am 12.6 6.1 6.4 66 3.0 ESE 30 48 16 26 1023.8 1023.9 0.2
19/11:00am 12.5 6.6 5.7 63 3.2 ESE 26 37 14 20 1023.6 1023.7 0.2
19/10:30am 12.6 7.5 6.0 64 3.1 ESE 22 32 12 17 1023.5 1023.6 0.2
19/10:00am 12.7 7.6 5.8 63 3.3 ESE 22 35 12 19 1023.1 1023.2 0.2
19/09:30am 12.2 7.8 4.7 60 3.5 SE 17 32 9 17 1022.6 1022.8 0.2
19/09:00am 11.5 6.3 3.8 59 3.4 SE 20 39 11 21 1022.1 1022.3 1.0
19/08:30am 11.2 7.4 5.9 70 2.5 ESE 15 20 8 11 1021.5 1021.7 1.0
19/08:00am 9.6 7.1 4.6 71 2.2 WSW 7 15 4 8 1021.0 1021.1 1.0
19/07:30am 8.9 7.3 4.5 74 2.0 SE 2 6 1 3 1020.6 1020.7 1.0
19/07:00am 7.9 4.5 3.9 76 1.7 SSE 11 17 6 9 1020.1 1020.2 1.0
19/06:30am 6.3 4.2 4.0 85 1.0 NNW 4 7 2 4 1019.2 1019.3 1.0
19/06:00am 5.2 2.5 2.6 83 1.1 NNE 6 9 3 5 1018.8 1018.9 1.0
19/05:30am 7.1 5.0 4.1 81 1.3 WNW 4 7 2 4 1018.4 1018.5 1.0
19/05:00am 7.7 4.7 4.1 78 1.6 SSW 9 20 5 11 1018.0 1018.1 1.0
19/04:30am 8.1 3.7 4.9 80 1.4 S 17 24 9 13 1017.4 1017.6 1.0
19/04:00am 8.1 4.1 5.0 81 1.4 SSW 15 22 8 12 1017.1 1017.2 1.0
19/03:30am 8.1 4.2 5.2 82 1.3 SSW 15 20 8 11 1017.1 1017.2 1.0
19/03:00am 8.4 4.2 5.5 82 1.3 SSW 17 24 9 13 1016.7 1016.8 1.0
19/02:30am 8.3 4.1 5.6 83 1.2 S 17 24 9 13 1016.7 1016.8 1.0
19/02:00am 8.6 5.9 5.7 82 1.3 WSW 9 17 5 9 1016.4 1016.5 1.0
19/01:30am 8.9 7.6 5.8 81 1.4 SW 2 7 1 4 1016.3 1016.4 1.0
19/01:00am 8.2 6.9 6.0 86 1.0 NNW 2 6 1 3 1016.1 1016.2 1.0
19/12:30am 8.7 6.5 6.2 84 1.2 ESE 7 9 4 5 1015.6 1015.7 1.0
19/12:00am 8.5 5.9 6.1 85 1.1 S 9 11 5 6 1015.4 1015.5 1.0
 
Date/Time
EDT
Temp
°C
App
Temp
°C
Dew
Point
°C
Rel
Hum
%
Delta-T
°C
Wind Press
QNH
hPa
Press
MSL
hPa
Rain since
9am
mm
Dir  Spd
km/h
Gust
km/h
Spd
kts
Gust
kts
18/11:30pm 8.7 6.8 6.5 86 1.0 SSE 6 9 3 5 1015.1 1015.2 1.0
18/11:00pm 9.0 6.5 6.4 84 1.2 SSE 9 13 5 7 1014.9 1015.0 1.0
18/10:30pm 9.3 6.3 6.2 81 1.4 SE 11 15 6 8 1014.7 1014.8 1.0
18/10:00pm 9.4 6.6 6.8 84 1.2 SSE 11 20 6 11 1014.2 1014.3 0.8
18/09:30pm 9.5 7.8 7.6 88 0.9 S 6 9 3 5 1013.7 1013.8 0.2
18/09:00pm 9.4 7.1 7.3 87 1.0 SSW 9 13 5 7 1013.1 1013.2 0.2
18/08:30pm 9.8 7.2 7.7 87 1.0 SSE 11 15 6 8 1012.2 1012.3 0.2
18/08:00pm 10.0 5.6 7.3 83 1.3 SSW 20 30 11 16 1011.7 1011.8 0.2
18/07:30pm 11.6 11.1 9.5 87 1.1 W 2 11 1 6 1010.9 1011.0 0.2
18/07:00pm 11.6 7.9 9.5 87 1.1 N 19 24 10 13 1010.3 1010.4 0.2
18/06:30pm 12.1 9.6 9.7 85 1.2 NW 13 20 7 11 1010.2 1010.3 0.2
18/06:00pm 11.9 8.7 9.8 87 1.1 NNW 17 22 9 12 1009.9 1010.0 0.2
18/05:30pm 12.7 9.1 9.7 82 1.5 NW 19 26 10 14 1009.7 1009.8 0.2
18/05:00pm 12.5 8.6 9.3 81 1.6 NW 20 32 11 17 1009.6 1009.7 0.2
18/04:30pm 13.3 9.5 9.7 79 1.9 NW 20 30 11 16 1009.5 1009.6 0.2
18/04:00pm 14.1 11.4 10.5 79 1.9 NW 15 26 8 14 1009.5 1009.6 0.2
18/03:30pm 13.8 9.9 9.5 75 2.2 NNW 20 35 11 19 1009.4 1009.5 0.2
18/03:00pm 14.8 11.3 10.2 74 2.4 NW 19 32 10 17 1009.3 1009.4 0.2
18/02:30pm 14.5 10.7 9.7 73 2.5 NNW 20 30 11 16 1009.3 1009.4 0.2
18/02:00pm 14.0 11.3 10.4 79 1.9 NW 15 24 8 13 1009.6 1009.7 0.2
18/01:30pm 14.6 11.6 9.2 70 2.8 NW 15 22 8 12 1009.7 1009.8 0.2
18/01:00pm 13.6 10.4 8.4 71 2.6 WNW 15 22 8 12 1010.0 1010.1 0.2
18/12:30pm 13.1 9.9 10.1 82 1.6 WNW 17 24 9 13 1010.2 1010.3 0.2
18/12:00pm 13.4 10.0 7.8 69 2.8 WNW 15 24 8 13 1010.4 1010.5 0.2
18/11:30am 13.2 9.8 7.6 69 2.8 W 15 24 8 13 1010.7 1010.8 0.2
18/11:00am 13.2 9.6 6.8 65 3.1 WNW 15 28 8 15 1010.7 1010.8 0.2
18/10:30am 12.9 8.3 6.7 66 3.0 NW 20 33 11 18 1010.9 1011.0 0.0

Other formats

Comma delimited format used in spreadsheet applications
http://www.bom.gov.au/fwo/IDT60801/IDT60801.94972.axf

JavaScript Object Notation format (JSON) in row-major order
http://www.bom.gov.au/fwo/IDT60801/IDT60801.94972.json

Data quality

Most of these data are generated automatically and are frequently updated. Quality checks on data are not normally performed. It is possible for incorrect values to appear. Refer to information at About Latest Weather Observations and please check the disclaimer before using these data.